createdAt,value
2023-02-20T00:02:13.255Z,1.20
2023-02-20T00:05:22.239Z,0.95
2023-02-20T00:08:25.620Z,0.95
2023-02-20T00:11:28.521Z,0.90
2023-02-20T00:14:31.158Z,0.68
2023-02-20T00:17:38.765Z,0.50
2023-02-20T00:20:43.959Z,1.05
2023-02-20T00:23:47.323Z,0.77
2023-02-20T00:26:52.798Z,0.75
2023-02-20T00:29:55.647Z,0.75
2023-02-20T00:33:02.195Z,0.60
2023-02-20T00:36:05.870Z,0.90
2023-02-20T00:39:08.597Z,0.90
2023-02-20T00:42:11.226Z,0.40
2023-02-20T00:45:15.397Z,0.60
2023-02-20T00:48:17.873Z,0.70
2023-02-20T00:51:23.826Z,0.70
2023-02-20T00:54:29.852Z,0.70
2023-02-20T00:57:34.466Z,0.73
2023-02-20T01:00:40.311Z,1.00
2023-02-20T01:03:43.884Z,1.00
2023-02-20T01:06:47.177Z,1.13
2023-02-20T01:09:49.843Z,1.10
2023-02-20T01:12:53.211Z,0.82
2023-02-20T01:15:56.123Z,0.93
2023-02-20T01:18:59.358Z,0.93
2023-02-20T01:22:03.138Z,1.20
2023-02-20T01:25:06.529Z,1.05
2023-02-20T01:28:09.727Z,1.10
2023-02-20T01:31:12.941Z,1.30
2023-02-20T01:34:16.059Z,1.33
2023-02-20T01:37:19.947Z,1.30
2023-02-20T01:40:26.303Z,1.33
2023-02-20T01:43:29.290Z,1.30
2023-02-20T01:46:34.835Z,1.30
2023-02-20T01:49:46.785Z,1.30
2023-02-20T01:52:53.960Z,1.27
2023-02-20T01:56:02.963Z,1.27
2023-02-20T01:59:08.932Z,1.42
2023-02-20T02:02:16.465Z,1.30
2023-02-20T02:05:19.562Z,1.10
2023-02-20T02:08:25.708Z,1.58
2023-02-20T02:11:28.153Z,1.48
2023-02-20T02:14:30.826Z,1.30
2023-02-20T02:17:51.925Z,1.30
2023-02-20T02:21:26.505Z,1.20
2023-02-20T02:24:55.677Z,1.48
2023-02-20T02:28:07.556Z,1.65
2023-02-20T02:31:10.610Z,1.40
2023-02-20T02:34:50.770Z,1.60
2023-02-20T02:38:07.835Z,1.67
2023-02-20T02:41:35.353Z,1.35
2023-02-20T02:44:53.348Z,1.27
2023-02-20T02:48:05.043Z,1.58
2023-02-20T02:51:19.901Z,1.50
2023-02-20T02:54:29.354Z,1.80
2023-02-20T02:57:32.812Z,1.85
2023-02-20T03:00:50.353Z,1.40
2023-02-20T03:03:54.823Z,1.50
2023-02-20T03:07:09.154Z,1.63
2023-02-20T03:10:20.948Z,1.97
2023-02-20T03:13:45.352Z,1.58
2023-02-20T03:16:54.831Z,1.75
2023-02-20T03:20:06.273Z,2.25
2023-02-20T03:23:12.938Z,1.73
2023-02-20T03:26:23.094Z,1.83
2023-02-20T03:29:35.788Z,1.90
2023-02-20T03:33:01.731Z,2.20
2023-02-20T03:36:33.383Z,2.28
2023-02-20T03:40:05.644Z,2.35
2023-02-20T03:43:31.083Z,2.13
2023-02-20T03:46:46.087Z,2.20
2023-02-20T03:50:11.872Z,2.45
2023-02-20T03:53:15.873Z,2.70
2023-02-20T03:56:32.320Z,2.15
2023-02-20T03:59:48.316Z,2.40
2023-02-20T04:02:59.391Z,2.22
2023-02-20T04:06:08.325Z,2.47
2023-02-20T04:09:18.389Z,2.28
2023-02-20T04:12:31.827Z,2.90
2023-02-20T04:15:35.925Z,2.73
2023-02-20T04:18:42.951Z,2.42
2023-02-20T04:22:02.795Z,2.30
2023-02-20T04:25:31.581Z,2.70
2023-02-20T04:28:35.108Z,2.70
2023-02-20T04:31:49.445Z,2.33
2023-02-20T04:35:01.976Z,2.45
2023-02-20T04:38:14.902Z,2.17
2023-02-20T04:41:32.481Z,2.38
2023-02-20T04:44:37.145Z,2.13
2023-02-20T04:47:40.113Z,2.30
2023-02-20T04:50:43.240Z,2.50
2023-02-20T04:53:46.010Z,2.10
2023-02-20T04:56:49.920Z,2.17
2023-02-20T04:59:53.915Z,2.00
2023-02-20T05:02:57.747Z,2.27
2023-02-20T05:06:00.791Z,1.80
2023-02-20T05:09:05.584Z,1.92
2023-02-20T05:12:10.396Z,1.88
2023-02-20T05:15:14.616Z,2.40
2023-02-20T05:18:29.869Z,1.70
2023-02-20T05:21:51.312Z,2.03
2023-02-20T05:24:55.283Z,1.75
2023-02-20T05:27:59.355Z,1.80
2023-02-20T05:31:02.931Z,1.80
2023-02-20T05:34:09.782Z,1.60
2023-02-20T05:37:14.218Z,1.58
2023-02-20T05:40:17.071Z,1.73
2023-02-20T05:43:19.892Z,1.50
2023-02-20T05:46:23.860Z,2.05
2023-02-20T05:49:31.113Z,1.97
2023-02-20T05:52:34.283Z,1.98
2023-02-20T05:55:37.487Z,2.17
2023-02-20T05:58:44.181Z,1.70
2023-02-20T06:01:56.718Z,1.70
2023-02-20T06:05:02.607Z,1.80
2023-02-20T06:08:08.951Z,1.60
2023-02-20T06:11:18.339Z,1.70
2023-02-20T06:14:23.153Z,1.60
2023-02-20T06:17:36.823Z,1.70
2023-02-20T06:20:42.163Z,1.60
2023-02-20T06:24:14.573Z,1.58
2023-02-20T06:27:32.611Z,1.65
2023-02-20T06:30:38.269Z,1.80
2023-02-20T06:34:14.021Z,2.30
2023-02-20T06:37:21.827Z,1.80
2023-02-20T06:40:32.482Z,2.10
2023-02-20T06:43:58.743Z,1.60
2023-02-20T06:47:22.354Z,2.00
2023-02-20T06:50:37.446Z,1.83
2023-02-20T06:54:08.287Z,1.60
2023-02-20T06:57:29.534Z,1.90
2023-02-20T07:00:36.703Z,2.28
2023-02-20T07:03:42.353Z,1.73
2023-02-20T07:06:51.175Z,1.88
2023-02-20T07:10:02.031Z,1.80
2023-02-20T07:13:22.256Z,6.72
2023-02-20T07:16:34.336Z,2.42
2023-02-20T07:19:37.938Z,1.70
2023-02-20T07:22:52.067Z,2.30
2023-02-20T07:25:57.388Z,1.90
2023-02-20T07:29:32.794Z,1.90
2023-02-20T07:32:38.745Z,1.80
2023-02-20T07:35:47.688Z,1.38
2023-02-20T07:39:00.994Z,1.98
2023-02-20T07:45:39.652Z,1.60
2023-02-20T07:48:59.950Z,1.65
2023-02-20T07:55:27.134Z,1.85
2023-02-20T07:58:33.225Z,2.17
2023-02-20T08:01:46.168Z,2.08
2023-02-20T08:04:51.083Z,2.20
2023-02-20T08:07:55.277Z,2.30
2023-02-20T08:11:08.661Z,1.80
2023-02-20T08:14:14.742Z,1.93
2023-02-20T08:17:19.384Z,1.88
2023-02-20T08:20:29.100Z,1.98
2023-02-20T08:23:31.652Z,2.10
2023-02-20T08:26:45.758Z,2.20
2023-02-20T08:29:48.691Z,2.80
2023-02-20T08:32:58.593Z,2.30
2023-02-20T08:36:03.062Z,2.20
2023-02-20T08:39:05.791Z,2.15
2023-02-20T08:42:08.610Z,2.63
2023-02-20T08:45:12.426Z,4.10
2023-02-20T08:48:22.774Z,2.38
2023-02-20T08:51:29.607Z,2.65
2023-02-20T08:54:32.697Z,2.00
2023-02-20T08:57:44.854Z,2.13
2023-02-20T09:00:49.794Z,2.63
2023-02-20T09:03:53.994Z,2.65
2023-02-20T09:06:57.164Z,2.28
2023-02-20T09:10:02.196Z,2.40
2023-02-20T09:13:09.757Z,2.30
2023-02-20T09:16:21.139Z,2.50
2023-02-20T09:19:27.997Z,2.78
2023-02-20T09:22:35.363Z,2.42
2023-02-20T09:25:41.806Z,2.30
2023-02-20T09:28:47.431Z,2.45
2023-02-20T09:31:49.970Z,2.70
2023-02-20T09:34:55.846Z,2.95
2023-02-20T09:38:02.109Z,2.67
2023-02-20T09:41:09.171Z,2.90
2023-02-20T09:44:42.719Z,2.83
2023-02-20T09:48:28.529Z,2.20
2023-02-20T09:51:42.616Z,3.05
2023-02-20T09:54:59.078Z,2.65
2023-02-20T09:58:05.432Z,2.85
2023-02-20T10:01:23.596Z,3.20
2023-02-20T10:05:00.324Z,3.17
2023-02-20T10:08:35.351Z,2.90
2023-02-20T10:12:12.038Z,3.05
2023-02-20T10:15:35.667Z,4.13
2023-02-20T10:18:55.017Z,3.03
2023-02-20T10:22:21.546Z,3.13
2023-02-20T10:25:38.955Z,3.10
2023-02-20T10:28:44.999Z,3.40
2023-02-20T10:32:03.455Z,3.35
2023-02-20T10:35:24.598Z,3.53
2023-02-20T10:43:06.939Z,3.03
2023-02-20T10:46:22.237Z,3.40
2023-02-20T10:49:42.612Z,3.40
2023-02-20T10:53:16.026Z,3.08
2023-02-20T10:56:44.811Z,3.30
2023-02-20T11:00:11.103Z,3.25
2023-02-20T11:03:29.402Z,2.80
2023-02-20T11:06:43.325Z,3.53
2023-02-20T11:09:49.582Z,2.92
2023-02-20T11:13:05.650Z,3.27
2023-02-20T11:16:21.610Z,3.17
2023-02-20T11:19:42.646Z,2.90
2023-02-20T11:26:35.307Z,3.53
2023-02-20T11:30:22.441Z,3.60
2023-02-20T11:33:44.318Z,3.53
2023-02-20T11:37:09.769Z,3.55
2023-02-20T11:40:31.682Z,3.22
2023-02-20T11:44:00.527Z,4.18
2023-02-20T11:47:33.398Z,3.80
2023-02-20T11:51:04.926Z,2.80
2023-02-20T11:54:27.672Z,4.03
2023-02-20T11:57:45.863Z,2.78
2023-02-20T12:00:57.146Z,3.15
2023-02-20T12:04:05.725Z,3.40
2023-02-20T12:07:24.256Z,3.33
2023-02-20T12:10:52.915Z,3.58
2023-02-20T12:14:00.485Z,3.40
2023-02-20T12:17:40.920Z,2.97
2023-02-20T12:21:19.683Z,2.63
2023-02-20T12:24:44.274Z,3.15
2023-02-20T12:28:16.963Z,2.40
2023-02-20T12:31:47.201Z,2.63
2023-02-20T12:34:55.617Z,2.40
2023-02-20T12:38:23.450Z,2.63
2023-02-20T12:41:35.058Z,2.33
2023-02-20T12:45:11.462Z,2.78
2023-02-20T12:48:35.950Z,2.10
2023-02-20T12:51:53.332Z,2.60
2023-02-20T12:55:15.100Z,2.03
2023-02-20T12:58:46.271Z,2.83
2023-02-20T13:02:04.801Z,2.80
2023-02-20T13:05:17.131Z,3.13
2023-02-20T13:08:54.220Z,3.25
2023-02-20T13:12:04.032Z,3.43
2023-02-20T13:15:13.903Z,3.28
2023-02-20T13:18:43.003Z,2.80
2023-02-20T13:22:05.123Z,2.28
2023-02-20T13:25:45.178Z,2.50
2023-02-20T13:28:51.990Z,2.30
2023-02-20T13:32:28.148Z,2.30
2023-02-20T13:35:42.818Z,2.80
2023-02-20T13:39:22.521Z,2.78
2023-02-20T13:42:33.109Z,2.17
2023-02-20T13:45:52.320Z,2.20
2023-02-20T13:48:55.106Z,2.05
2023-02-20T13:51:57.362Z,2.40
2023-02-20T13:55:01.855Z,1.70
2023-02-20T13:58:13.966Z,1.70
2023-02-20T14:01:18.159Z,1.57
2023-02-20T14:04:22.039Z,1.65
2023-02-20T14:07:51.272Z,1.55
2023-02-20T14:10:53.571Z,1.70
2023-02-20T14:13:58.248Z,1.38
2023-02-20T14:17:16.432Z,1.50
2023-02-20T14:20:25.381Z,1.50
2023-02-20T14:23:29.886Z,1.50
2023-02-20T14:26:34.823Z,1.45
2023-02-20T14:29:38.532Z,1.45
2023-02-20T14:32:47.118Z,1.50
2023-02-20T14:36:30.192Z,1.50
2023-02-20T14:39:58.594Z,1.50
2023-02-20T14:43:03.806Z,1.48
2023-02-20T14:46:10.177Z,1.33
2023-02-20T14:49:27.043Z,1.13
2023-02-20T14:52:32.878Z,1.40
2023-02-20T14:55:49.872Z,1.70
2023-02-20T14:58:59.506Z,2.40
2023-02-20T15:02:34.782Z,3.35
2023-02-20T15:05:42.692Z,3.73
2023-02-20T15:09:05.197Z,4.20
2023-02-20T15:12:46.375Z,3.80
2023-02-20T15:16:04.358Z,3.88
2023-02-20T15:19:24.419Z,4.15
2023-02-20T15:23:00.110Z,4.67
2023-02-20T15:26:34.742Z,3.63
2023-02-20T15:29:42.958Z,3.72
2023-02-20T15:33:01.788Z,3.65
2023-02-20T15:36:10.883Z,4.35
2023-02-20T15:39:19.878Z,4.80
2023-02-20T15:42:26.125Z,4.80
2023-02-20T15:45:32.890Z,5.35
2023-02-20T15:57:02.930Z,5.27
2023-02-20T16:03:55.473Z,5.03
2023-02-20T16:07:05.448Z,4.85
2023-02-20T16:13:58.074Z,4.87
2023-02-20T16:17:03.185Z,5.57
2023-02-20T16:20:18.789Z,5.70
2023-02-20T16:23:24.314Z,6.13
2023-02-20T16:26:31.848Z,5.13
2023-02-20T16:29:38.416Z,4.87
2023-02-20T16:32:45.387Z,4.50
2023-02-20T16:35:56.955Z,5.20
2023-02-20T16:38:59.717Z,4.70
2023-02-20T16:42:08.650Z,5.20
2023-02-20T16:45:20.949Z,5.00
2023-02-20T16:48:25.954Z,4.80
2023-02-20T16:51:30.065Z,4.90
2023-02-20T16:54:33.097Z,5.17
2023-02-20T16:57:35.584Z,5.43
2023-02-20T17:00:57.512Z,5.18
2023-02-20T17:04:05.272Z,4.97
2023-02-20T17:07:10.837Z,5.47
2023-02-20T17:10:15.067Z,4.83
2023-02-20T17:13:18.417Z,5.22
2023-02-20T17:16:34.024Z,4.78
2023-02-20T17:19:40.229Z,5.30
2023-02-20T17:22:50.565Z,5.47
2023-02-20T17:25:58.541Z,5.40
2023-02-20T17:29:01.288Z,5.18
2023-02-20T17:32:17.550Z,5.38
2023-02-20T17:35:20.413Z,5.47
2023-02-20T17:38:24.605Z,5.75
2023-02-20T17:41:34.171Z,5.03
2023-02-20T17:44:41.752Z,5.85
2023-02-20T17:48:03.015Z,6.90
2023-02-20T17:51:10.985Z,6.28
2023-02-20T17:54:15.026Z,6.00
2023-02-20T17:57:21.989Z,6.83
2023-02-20T18:00:27.571Z,6.25
2023-02-20T18:03:30.086Z,5.72
2023-02-20T18:06:33.768Z,6.18
2023-02-20T18:09:39.595Z,6.22
2023-02-20T18:12:43.549Z,5.57
2023-02-20T18:15:45.939Z,5.20
2023-02-20T18:18:51.747Z,6.95
2023-02-20T18:21:54.961Z,8.02
2023-02-20T18:24:57.510Z,7.05
2023-02-20T18:28:00.922Z,7.30
2023-02-20T18:31:05.290Z,8.02
2023-02-20T18:34:08.470Z,10.10
2023-02-20T18:37:14.972Z,8.35
2023-02-20T18:40:19.237Z,8.73
2023-02-20T18:43:23.012Z,8.97
2023-02-20T18:46:36.762Z,8.98
2023-02-20T18:49:39.324Z,7.90
2023-02-20T18:52:42.272Z,7.32
2023-02-20T18:55:44.939Z,8.23
2023-02-20T18:58:47.599Z,9.73
2023-02-20T19:01:50.170Z,9.63
2023-02-20T19:05:01.347Z,10.63
2023-02-20T19:08:04.653Z,11.00
2023-02-20T19:11:07.172Z,9.77
2023-02-20T19:14:10.738Z,10.87
2023-02-20T19:17:13.235Z,10.32
2023-02-20T19:20:29.317Z,13.73
2023-02-20T19:23:32.375Z,13.90
2023-02-20T19:26:34.947Z,14.93
2023-02-20T19:29:39.512Z,14.77
2023-02-20T19:32:44.848Z,14.15
2023-02-20T19:35:49.616Z,11.90
2023-02-20T19:38:54.181Z,11.75
2023-02-20T19:41:57.278Z,15.65
2023-02-20T19:44:59.989Z,13.03
2023-02-20T19:48:04.525Z,13.93
2023-02-20T19:51:14.354Z,16.17
2023-02-20T19:54:19.201Z,14.23
2023-02-20T19:57:21.855Z,14.55
2023-02-20T20:00:28.900Z,6.27
2023-02-20T20:03:32.818Z,6.50
2023-02-20T20:06:35.369Z,6.18
2023-02-20T20:09:38.440Z,6.80
2023-02-20T20:12:47.051Z,6.20
2023-02-20T20:15:49.822Z,5.90
2023-02-20T20:18:53.529Z,6.18
2023-02-20T20:21:56.298Z,6.05
2023-02-20T20:24:59.611Z,6.40
2023-02-20T20:28:04.770Z,6.25
2023-02-20T20:31:07.681Z,6.47
2023-02-20T20:34:10.137Z,6.50
2023-02-20T20:37:12.594Z,7.03
2023-02-20T20:40:17.309Z,6.78
2023-02-20T20:43:19.832Z,7.68
2023-02-20T20:46:22.307Z,7.43
2023-02-20T20:49:24.817Z,6.82
2023-02-20T20:52:31.078Z,6.97
2023-02-20T20:55:35.108Z,7.38
2023-02-20T20:58:37.571Z,7.60
2023-02-20T21:01:41.107Z,7.37
2023-02-20T21:04:46.169Z,7.63
2023-02-20T21:07:49.061Z,7.63
2023-02-20T21:10:51.616Z,7.38
2023-02-20T21:13:54.185Z,7.45
2023-02-20T21:16:58.067Z,7.90
2023-02-20T21:20:04.638Z,7.53
2023-02-20T21:23:10.990Z,8.93
2023-02-20T21:26:13.736Z,7.75
2023-02-20T21:29:16.608Z,8.05
2023-02-20T21:32:19.522Z,7.77
2023-02-20T21:35:22.883Z,7.18
2023-02-20T21:38:25.691Z,7.25
2023-02-20T21:41:47.333Z,7.63
2023-02-20T21:44:49.598Z,8.15
2023-02-20T21:47:52.032Z,8.77
2023-02-20T21:50:54.356Z,8.50
2023-02-20T21:53:56.676Z,8.40
2023-02-20T21:57:00.351Z,8.43
2023-02-20T22:00:02.552Z,8.88
2023-02-20T22:03:04.895Z,9.37
2023-02-20T22:06:07.209Z,8.85
2023-02-20T22:09:33.211Z,8.73
2023-02-20T22:12:53.427Z,8.82
2023-02-20T22:16:15.731Z,8.30
2023-02-20T22:19:36.417Z,8.37
2023-02-20T22:22:58.292Z,8.38
2023-02-20T22:26:19.507Z,9.50
2023-02-20T22:29:41.029Z,9.15
2023-02-20T22:33:04.952Z,9.32
2023-02-20T22:36:27.757Z,10.37
2023-02-20T22:39:48.831Z,10.63
2023-02-20T22:43:10.064Z,9.60
2023-02-20T22:46:30.952Z,9.10
2023-02-20T22:49:52.406Z,9.55
2023-02-20T22:53:13.458Z,8.97
2023-02-20T22:56:38.873Z,9.27
2023-02-20T23:00:03.576Z,9.63
2023-02-20T23:03:28.022Z,9.40
2023-02-20T23:06:49.136Z,10.57
2023-02-20T23:10:10.089Z,9.13
2023-02-20T23:13:31.303Z,8.60
2023-02-20T23:16:52.078Z,8.25
2023-02-20T23:20:13.440Z,8.43
2023-02-20T23:23:43.870Z,7.57
2023-02-20T23:27:12.712Z,8.53
2023-02-20T23:30:36.939Z,8.52
2023-02-20T23:33:57.806Z,8.20
2023-02-20T23:37:18.652Z,8.73
2023-02-20T23:40:39.804Z,8.50
2023-02-20T23:44:01.300Z,8.37
2023-02-20T23:47:21.873Z,8.50
2023-02-20T23:50:43.244Z,8.23
2023-02-20T23:54:04.494Z,7.47
2023-02-20T23:57:27.794Z,6.75
